Time;durP1;ratioP1;P1;durP2;ratioP2;P2;SDS_P1;SDS_P2;PMS_P1;PMS_P2;Temp;Humidity;BMP_temperature;BMP_pressure;BME280_temperature;BME280_humidity;BME280_pressure;Samples;Min_cycle;Max_cycle;Signal;HPM_P1;HPM_P2
2022/08/20 00:02:15;;;;;;;28.70;25.90;;;21.30;1.00;;;;;;6283117;28;20840;-55
2022/08/20 00:05:23;;;;;;;27.57;24.77;;;21.30;1.00;;;;;;6281093;28;20236;-55
2022/08/20 00:08:27;;;;;;;23.93;21.93;;;21.30;1.00;;;;;;6284523;28;20383;-55
2022/08/20 00:11:32;;;;;;;24.93;22.30;;;21.30;1.00;;;;;;6278530;28;20793;-56
2022/08/20 00:14:36;;;;;;;23.00;20.90;;;21.20;1.00;;;;;;6282236;28;20498;-55
2022/08/20 00:17:39;;;;;;;24.67;22.23;;;21.20;1.00;;;;;;6284338;28;20233;-55
2022/08/20 00:20:45;;;;;;;23.10;21.00;;;21.10;1.00;;;;;;6273094;28;20246;-56
2022/08/20 00:23:49;;;;;;;23.53;21.27;;;21.10;1.00;;;;;;6260869;28;20226;-55
2022/08/20 00:26:53;;;;;;;21.80;19.83;;;21.10;1.00;;;;;;6257484;28;20355;-57
2022/08/20 00:30:01;;;;;;;23.33;21.30;;;21.10;1.00;;;;;;6268608;28;20628;-55
2022/08/20 00:33:06;;;;;;;24.90;22.50;;;21.10;1.00;;;;;;6281397;28;20234;-55
2022/08/20 00:36:11;;;;;;;27.13;24.53;;;21.10;1.00;;;;;;6270984;28;20229;-55
2022/08/20 00:39:14;;;;;;;25.80;23.20;;;21.10;1.00;;;;;;6264219;28;20249;-54
2022/08/20 00:42:18;;;;;;;27.03;24.43;;;21.20;1.00;;;;;;6260117;28;20233;-54
2022/08/20 00:45:21;;;;;;;27.37;24.87;;;21.10;1.00;;;;;;6276657;28;20230;-55
2022/08/20 00:48:25;;;;;;;25.90;23.43;;;21.10;1.00;;;;;;6282231;28;20241;-54
2022/08/20 00:51:33;;;;;;;26.97;24.10;;;21.10;1.00;;;;;;6285102;28;20879;-55
2022/08/20 00:54:41;;;;;;;24.10;21.90;;;21.00;1.00;;;;;;6283835;28;20395;-55
2022/08/20 00:57:52;;;;;;;23.03;20.90;;;21.00;1.00;;;;;;6263031;28;20233;-52
2022/08/20 01:01:05;;;;;;;23.23;20.70;;;21.10;1.00;;;;;;6253911;28;20327;-55
2022/08/20 01:04:09;;;;;;;24.63;22.30;;;21.00;1.00;;;;;;6266197;28;21055;-55
2022/08/20 01:07:12;;;;;;;26.00;23.53;;;21.00;1.00;;;;;;6283242;28;20531;-57
2022/08/20 01:10:19;;;;;;;23.20;20.97;;;21.00;1.00;;;;;;6283434;28;20864;-55
2022/08/20 01:13:26;;;;;;;26.10;23.33;;;21.00;1.00;;;;;;6274683;28;20238;-57
2022/08/20 01:16:31;;;;;;;26.23;23.53;;;21.00;1.00;;;;;;6282084;28;20249;-54
2022/08/20 01:19:39;;;;;;;27.87;25.07;;;21.00;1.00;;;;;;6275481;28;20775;-56
2022/08/20 01:26:22;;;;;;;24.87;22.77;;;21.00;1.00;;;;;;6258732;28;20703;-55
2022/08/20 01:29:34;;;;;;;24.73;22.43;;;20.90;1.00;;;;;;6259408;28;20252;-55
2022/08/20 01:32:37;;;;;;;24.10;21.77;;;20.90;1.00;;;;;;6268105;28;20751;-55
2022/08/20 01:35:41;;;;;;;23.00;21.00;;;20.90;1.00;;;;;;6287880;28;20363;-56
2022/08/20 01:38:48;;;;;;;24.27;22.07;;;20.90;1.00;;;;;;6287494;28;20225;-54
2022/08/20 01:42:05;;;;;;;23.90;21.70;;;20.90;1.00;;;;;;6287761;28;20225;-54
2022/08/20 01:45:09;;;;;;;25.00;22.70;;;21.00;1.00;;;;;;6280709;28;20275;-56
2022/08/20 01:48:13;;;;;;;24.60;22.40;;;21.00;1.00;;;;;;6287982;28;20318;-54
2022/08/20 01:51:23;;;;;;;25.10;22.87;;;21.00;1.00;;;;;;6287044;28;20237;-55
2022/08/20 01:54:27;;;;;;;24.10;22.00;;;21.00;1.00;;;;;;6266867;28;20504;-55
2022/08/20 01:57:32;;;;;;;22.93;20.83;;;20.90;1.00;;;;;;6263486;28;20299;-55
2022/08/20 02:00:35;;;;;;;22.33;20.40;;;20.90;1.00;;;;;;6263432;28;20242;-55
2022/08/20 02:03:48;;;;;;;22.87;20.80;;;20.90;1.00;;;;;;6268043;28;20330;-54
2022/08/20 02:06:55;;;;;;;20.63;18.93;;;20.80;1.00;;;;;;6288070;28;20317;-54
2022/08/20 02:10:00;;;;;;;18.23;16.83;;;20.80;1.00;;;;;;6263367;28;20242;-55
2022/08/20 02:13:08;;;;;;;16.70;15.40;;;20.80;1.00;;;;;;6263123;28;20230;-55
2022/08/20 02:16:11;;;;;;;15.73;14.37;;;20.80;1.00;;;;;;6270182;28;20248;-54
2022/08/20 02:19:22;;;;;;;15.13;13.97;;;20.80;1.00;;;;;;6286524;28;20237;-56
2022/08/20 02:22:35;;;;;;;14.20;13.20;;;20.70;1.00;;;;;;6285713;28;20723;-57
2022/08/20 02:25:43;;;;;;;14.87;13.67;;;20.60;1.00;;;;;;6276455;28;20303;-58
2022/08/20 02:28:49;;;;;;;12.97;12.17;;;20.60;1.00;;;;;;6262608;28;20403;-57
2022/08/20 02:31:56;;;;;;;13.43;12.53;;;20.60;1.00;;;;;;6261754;28;20603;-54
2022/08/20 02:35:20;;;;;;;14.80;13.60;;;20.60;1.00;;;;;;6282726;28;20304;-57
2022/08/20 02:38:23;;;;;;;15.27;14.13;;;20.50;1.00;;;;;;6287795;28;20240;-60
2022/08/20 02:41:26;;;;;;;14.97;13.77;;;20.50;1.00;;;;;;6286032;28;20237;-55
2022/08/20 02:44:31;;;;;;;17.17;15.73;;;20.40;1.00;;;;;;6286035;28;20312;-54
2022/08/20 02:47:33;;;;;;;17.40;15.93;;;20.40;1.00;;;;;;6286128;28;20237;-54
2022/08/20 02:50:37;;;;;;;20.53;18.50;;;20.30;1.00;;;;;;6287014;28;20286;-56
2022/08/20 02:53:41;;;;;;;19.00;17.27;;;20.30;1.00;;;;;;6274383;28;20234;-55
2022/08/20 02:56:48;;;;;;;17.70;16.20;;;20.30;1.00;;;;;;6261750;28;20287;-57
2022/08/20 02:59:53;;;;;;;19.37;17.67;;;20.20;1.00;;;;;;6260923;28;20675;-57
2022/08/20 03:02:58;;;;;;;19.50;17.63;;;20.20;1.00;;;;;;6276597;28;20296;-56
2022/08/20 03:06:03;;;;;;;20.57;18.77;;;20.20;1.00;;;;;;6286486;28;20392;-56
2022/08/20 03:09:07;;;;;;;22.33;20.13;;;20.20;1.00;;;;;;6279999;28;20295;-56
2022/08/20 03:12:11;;;;;;;22.17;20.10;;;20.20;1.00;;;;;;6260829;28;20376;-55
2022/08/20 03:15:15;;;;;;;25.73;23.27;;;20.20;1.00;;;;;;6277021;28;20618;-55
2022/08/20 03:18:20;;;;;;;24.13;21.87;;;20.30;1.00;;;;;;6267746;28;20530;-55
2022/08/20 03:21:25;;;;;;;26.27;23.70;;;20.30;1.00;;;;;;6261211;28;20719;-56
2022/08/20 03:24:28;;;;;;;25.03;22.33;;;20.20;1.00;;;;;;6239618;28;20237;-56
2022/08/20 03:27:31;;;;;;;26.27;23.43;;;20.20;1.00;;;;;;6273896;28;20234;-56
2022/08/20 03:30:41;;;;;;;34.60;26.80;;;20.30;1.00;;;;;;6284083;28;20244;-56
2022/08/20 03:33:44;;;;;;;34.43;27.97;;;20.30;1.00;;;;;;6272125;28;20468;-55
2022/08/20 03:36:54;;;;;;;36.80;29.23;;;20.30;1.00;;;;;;6277188;28;20305;-56
2022/08/20 03:39:58;;;;;;;35.73;28.63;;;20.30;1.00;;;;;;6283527;28;20267;-56
2022/08/20 03:43:03;;;;;;;33.97;30.07;;;20.30;1.00;;;;;;6283857;28;20275;-55
2022/08/20 03:46:11;;;;;;;38.37;29.87;;;20.30;1.00;;;;;;6284893;28;20314;-55
2022/08/20 03:49:34;;;;;;;35.93;31.40;;;20.30;1.00;;;;;;6279526;28;20238;-56
2022/08/20 03:52:37;;;;;;;33.90;30.33;;;20.30;1.00;;;;;;6283438;28;20730;-57
2022/08/20 03:55:43;;;;;;;32.87;29.50;;;20.30;1.00;;;;;;6284720;28;20301;-55
2022/08/20 03:58:55;;;;;;;33.67;29.90;;;20.30;1.00;;;;;;6280847;28;20237;-56
2022/08/20 04:02:06;;;;;;;32.17;28.67;;;20.30;1.00;;;;;;6284677;28;20332;-56
2022/08/20 04:05:09;;;;;;;32.93;29.53;;;20.30;1.00;;;;;;6285088;28;20265;-56
2022/08/20 04:08:14;;;;;;;32.67;29.37;;;20.30;1.00;;;;;;6280481;28;20233;-56
2022/08/20 04:11:17;;;;;;;33.53;30.13;;;20.30;1.00;;;;;;6280812;28;20230;-58
2022/08/20 04:14:20;;;;;;;32.87;29.43;;;20.30;1.00;;;;;;6283301;28;20241;-56
2022/08/20 04:17:26;;;;;;;31.77;28.47;;;20.30;1.00;;;;;;6284281;28;20229;-55
2022/08/20 04:20:29;;;;;;;30.53;27.33;;;20.30;1.00;;;;;;6284454;28;20234;-57
2022/08/20 04:23:32;;;;;;;29.53;26.63;;;20.30;1.00;;;;;;6275071;28;20260;-57
2022/08/20 04:26:36;;;;;;;29.13;26.30;;;20.30;1.00;;;;;;6281428;28;20241;-55
2022/08/20 04:29:41;;;;;;;27.27;24.40;;;20.40;1.00;;;;;;6283032;28;20781;-56
2022/08/20 04:32:47;;;;;;;29.33;26.47;;;20.30;1.00;;;;;;6283210;28;20761;-57
2022/08/20 04:35:51;;;;;;;29.40;26.53;;;20.40;1.00;;;;;;6270010;28;20229;-56
2022/08/20 04:38:54;;;;;;;29.20;26.30;;;20.40;1.00;;;;;;6283960;28;20241;-56
2022/08/20 04:41:57;;;;;;;28.80;26.00;;;20.40;1.00;;;;;;6280455;28;20668;-56
2022/08/20 04:45:00;;;;;;;29.13;26.17;;;20.40;1.00;;;;;;6283130;28;20773;-57
2022/08/20 04:48:06;;;;;;;28.37;25.53;;;20.40;1.00;;;;;;6283422;28;20320;-57
2022/08/20 04:51:16;;;;;;;27.77;25.03;;;20.50;1.00;;;;;;6282620;28;20238;-57
2022/08/20 04:54:20;;;;;;;26.00;23.60;;;20.50;1.00;;;;;;6280612;28;20291;-56
2022/08/20 04:57:24;;;;;;;30.93;27.67;;;20.50;1.00;;;;;;6283558;28;20783;-57
2022/08/20 05:00:30;;;;;;;30.17;27.27;;;20.50;1.00;;;;;;6280227;28;20264;-58
2022/08/20 05:03:36;;;;;;;29.53;26.57;;;20.50;1.00;;;;;;6283201;28;20294;-56
2022/08/20 05:06:40;;;;;;;28.73;25.97;;;20.60;1.00;;;;;;6282671;28;20241;-56
2022/08/20 05:09:43;;;;;;;28.80;26.17;;;20.60;1.00;;;;;;6279742;28;20308;-56
2022/08/20 05:12:46;;;;;;;28.73;25.73;;;20.60;1.00;;;;;;6283119;28;20229;-56
2022/08/20 05:16:00;;;;;;;27.37;24.77;;;20.70;1.00;;;;;;6283669;28;20766;-56
2022/08/20 05:19:07;;;;;;;29.17;26.17;;;20.60;1.00;;;;;;6278340;28;20237;-55
2022/08/20 05:22:10;;;;;;;27.63;24.93;;;20.60;1.00;;;;;;6283794;28;20248;-60
2022/08/20 05:25:13;;;;;;;28.03;25.33;;;20.60;1.00;;;;;;6283573;28;20759;-56
2022/08/20 05:28:18;;;;;;;30.53;27.27;;;20.60;1.00;;;;;;6276336;28;20690;-55
2022/08/20 05:31:21;;;;;;;27.47;24.77;;;20.60;1.00;;;;;;6282998;28;20334;-56
2022/08/20 05:34:34;;;;;;;28.33;25.37;;;20.60;1.00;;;;;;6283138;28;20233;-59
2022/08/20 05:37:37;;;;;;;28.50;25.63;;;20.60;1.00;;;;;;6283412;28;20259;-56
2022/08/20 05:40:42;;;;;;;27.53;24.93;;;20.60;1.00;;;;;;6282525;28;20722;-56
2022/08/20 05:43:51;;;;;;;29.03;25.83;;;20.60;1.00;;;;;;6281925;28;20445;-62
2022/08/20 05:46:54;;;;;;;29.07;26.20;;;20.70;1.00;;;;;;6282438;28;20316;-57
2022/08/20 05:49:59;;;;;;;31.00;27.70;;;20.70;1.00;;;;;;6282089;28;20798;-57
2022/08/20 05:53:02;;;;;;;29.33;26.37;;;20.80;1.00;;;;;;6281539;28;20318;-57
2022/08/20 05:56:05;;;;;;;28.53;25.73;;;20.80;1.00;;;;;;6282521;28;20725;-55
2022/08/20 05:59:11;;;;;;;28.20;25.50;;;20.90;1.00;;;;;;6280429;28;20321;-56
2022/08/20 06:05:36;;;;;;;30.03;26.90;;;20.90;1.00;;;;;;6282869;28;20712;-58
2022/08/20 06:08:52;;;;;;;29.10;26.03;;;20.90;1.00;;;;;;6274354;28;20241;-56
2022/08/20 06:11:57;;;;;;;28.80;25.80;;;20.80;1.00;;;;;;6282103;28;20272;-57
2022/08/20 06:15:01;;;;;;;23.07;20.87;;;20.80;1.00;;;;;;6274021;28;20229;-61
2022/08/20 06:18:07;;;;;;;28.67;25.93;;;20.80;1.00;;;;;;6284142;28;20237;-56
2022/08/20 06:21:30;;;;;;;28.27;25.37;;;20.80;1.00;;;;;;6283105;28;20310;-56
2022/08/20 06:24:33;;;;;;;28.20;25.33;;;20.80;1.00;;;;;;6286837;28;20245;-57
2022/08/20 06:27:38;;;;;;;28.20;25.43;;;20.80;1.00;;;;;;6285864;28;20530;-57
2022/08/20 06:30:41;;;;;;;28.00;25.43;;;20.80;1.00;;;;;;6286278;28;20268;-57
2022/08/20 06:33:44;;;;;;;28.50;25.80;;;20.80;1.00;;;;;;6285159;28;20233;-59
2022/08/20 06:36:48;;;;;;;29.20;26.40;;;20.70;1.00;;;;;;6286626;28;20268;-57
2022/08/20 06:39:52;;;;;;;28.60;25.93;;;20.80;1.00;;;;;;6286217;28;20298;-56
2022/08/20 06:42:57;;;;;;;29.43;26.73;;;20.80;1.00;;;;;;6283045;28;20294;-56
2022/08/20 06:46:01;;;;;;;31.07;28.20;;;20.80;1.00;;;;;;6288761;28;20226;-61
2022/08/20 06:49:04;;;;;;;25.13;22.83;;;20.80;1.00;;;;;;6286466;28;20738;-57
2022/08/20 06:52:09;;;;;;;31.60;28.40;;;20.80;1.00;;;;;;6284112;28;20708;-55
2022/08/20 06:55:14;;;;;;;29.67;26.77;;;20.90;1.00;;;;;;6291358;28;20233;-57
2022/08/20 06:58:21;;;;;;;31.60;28.47;;;20.90;1.00;;;;;;6285700;28;20239;-57
2022/08/20 07:01:55;;;;;;;29.33;26.57;;;21.00;1.00;;;;;;6283179;28;20230;-56
2022/08/20 07:04:58;;;;;;;31.97;29.00;;;21.00;1.00;;;;;;6284887;28;20265;-57
2022/08/20 07:08:03;;;;;;;29.60;26.83;;;21.00;1.00;;;;;;6287113;28;20359;-56
2022/08/20 07:11:06;;;;;;;32.07;28.93;;;21.00;1.00;;;;;;6281509;28;20294;-57
2022/08/20 07:14:10;;;;;;;31.43;28.33;;;21.10;1.00;;;;;;6286110;28;20370;-57
2022/08/20 07:17:13;;;;;;;33.17;30.17;;;21.10;1.00;;;;;;6283533;28;20261;-56
2022/08/20 07:20:16;;;;;;;29.80;27.03;;;21.00;1.00;;;;;;6279707;28;20524;-57
2022/08/20 07:23:21;;;;;;;32.13;29.03;;;21.00;1.00;;;;;;6290728;28;20699;-57
2022/08/20 07:26:24;;;;;;;29.40;26.60;;;21.00;1.00;;;;;;6286809;28;20327;-57
2022/08/20 07:32:33;;;;;;;31.30;28.17;;;20.90;1.00;;;;;;6282055;28;20737;-55
2022/08/20 07:32:49;;;;;;;30.93;28.00;;;20.90;1.00;;;;;;6286627;28;20328;-58
2022/08/20 07:35:51;;;;;;;32.93;29.70;;;21.00;1.00;;;;;;6286135;28;20646;-57
2022/08/20 07:38:56;;;;;;;30.43;27.40;;;21.00;1.00;;;;;;6279987;28;20240;-58
2022/08/20 07:42:02;;;;;;;28.77;26.10;;;20.90;1.00;;;;;;6285546;28;20248;-58
2022/08/20 07:45:07;;;;;;;32.03;28.70;;;20.90;1.00;;;;;;6285852;28;20229;-56
2022/08/20 07:48:13;;;;;;;31.87;28.57;;;20.90;1.00;;;;;;6281816;28;20241;-57
2022/08/20 07:51:33;;;;;;;29.60;26.80;;;20.90;1.00;;;;;;6286711;28;20706;-57
2022/08/20 07:54:38;;;;;;;30.80;27.83;;;20.90;1.00;;;;;;6281951;28;20383;-58
2022/08/20 07:57:45;;;;;;;32.00;28.90;;;20.90;1.00;;;;;;6280046;28;20242;-58
2022/08/20 08:00:48;;;;;;;36.90;32.93;;;20.90;1.00;;;;;;6258558;28;20809;-57
2022/08/20 08:03:54;;;;;;;33.40;29.93;;;21.00;1.00;;;;;;6283216;28;20248;-57
2022/08/20 08:06:58;;;;;;;32.97;29.67;;;21.00;1.00;;;;;;6276737;28;20803;-57
2022/08/20 08:10:07;;;;;;;36.20;32.00;;;21.00;1.00;;;;;;6281497;28;20568;-58
2022/08/20 08:13:12;;;;;;;33.37;29.77;;;21.10;1.00;;;;;;6285459;28;20234;-57
2022/08/20 08:16:16;;;;;;;34.67;31.23;;;21.10;1.00;;;;;;6283365;28;20436;-57
2022/08/20 08:19:19;;;;;;;32.13;28.90;;;21.20;1.00;;;;;;6284330;28;20286;-58
2022/08/20 08:22:22;;;;;;;35.43;32.00;;;21.20;1.00;;;;;;6284475;28;20663;-55
2022/08/20 08:25:27;;;;;;;36.30;32.70;;;21.30;1.00;;;;;;6277089;28;20263;-58
2022/08/20 08:28:30;;;;;;;37.50;33.17;;;21.20;1.00;;;;;;6279812;28;20312;-57
2022/08/20 08:31:33;;;;;;;32.47;28.97;;;21.30;1.00;;;;;;6284473;28;20240;-56
2022/08/20 08:34:37;;;;;;;34.23;30.73;;;21.30;1.00;;;;;;6284613;28;20389;-56
2022/08/20 08:37:40;;;;;;;36.10;32.67;;;21.30;1.00;;;;;;6280084;28;20233;-60
2022/08/20 08:40:45;;;;;;;39.53;35.33;;;21.30;1.00;;;;;;6283057;28;20724;-55
2022/08/20 08:44:00;;;;;;;39.00;35.00;;;21.40;1.00;;;;;;6283855;28;20241;-57
2022/08/20 08:47:17;;;;;;;36.53;32.97;;;21.40;1.00;;;;;;6279762;28;20241;-57
2022/08/20 08:50:24;;;;;;;37.90;33.87;;;21.40;1.00;;;;;;6284488;28;20375;-57
2022/08/20 08:53:52;;;;;;;38.47;34.53;;;21.40;1.00;;;;;;6282030;28;20237;-58
2022/08/20 08:56:58;;;;;;;39.47;35.43;;;21.40;1.00;;;;;;6281852;28;20673;-57
2022/08/20 09:00:06;;;;;;;38.47;34.57;;;21.50;1.00;;;;;;6284474;28;20623;-56
2022/08/20 09:03:16;;;;;;;38.90;35.03;;;21.50;1.00;;;;;;6281581;28;20625;-55
2022/08/20 09:06:24;;;;;;;38.23;34.23;;;21.60;1.00;;;;;;6283979;28;20818;-58
2022/08/20 09:09:32;;;;;;;39.37;35.47;;;21.70;1.00;;;;;;6283418;28;20320;-56
2022/08/20 09:12:36;;;;;;;36.70;32.87;;;21.60;1.00;;;;;;6281862;28;20308;-57
2022/08/20 09:15:39;;;;;;;33.00;29.63;;;21.70;1.00;;;;;;6283235;28;20857;-57
2022/08/20 09:18:42;;;;;;;32.87;29.67;;;21.70;1.00;;;;;;6278620;28;20237;-57
2022/08/20 09:21:45;;;;;;;36.97;33.00;;;21.80;1.00;;;;;;6282296;28;20233;-59
2022/08/20 09:24:49;;;;;;;33.30;29.83;;;22.00;1.00;;;;;;6278254;28;20334;-57
2022/08/20 09:27:54;;;;;;;35.70;32.30;;;22.10;1.00;;;;;;6276095;28;20677;-58
2022/08/20 09:30:57;;;;;;;33.43;30.20;;;22.10;1.00;;;;;;6281884;28;20241;-57
2022/08/20 09:34:00;;;;;;;37.17;33.30;;;22.10;1.00;;;;;;6283294;28;20275;-58
2022/08/20 09:37:03;;;;;;;32.23;29.23;;;22.10;1.00;;;;;;6283429;28;20241;-59
2022/08/20 09:40:08;;;;;;;34.87;31.17;;;22.10;1.00;;;;;;6281010;28;20320;-58
2022/08/20 09:43:13;;;;;;;38.67;34.60;;;22.10;1.00;;;;;;6269644;28;20270;-57
2022/08/20 09:46:16;;;;;;;38.63;34.77;;;22.00;1.00;;;;;;6282841;28;20239;-58
2022/08/20 09:49:18;;;;;;;37.20;33.20;;;21.90;1.00;;;;;;6282438;28;20363;-57
2022/08/20 09:52:25;;;;;;;36.07;32.47;;;21.80;1.00;;;;;;6282265;28;20235;-57
2022/08/20 09:55:33;;;;;;;39.53;35.30;;;21.70;1.00;;;;;;6287767;28;20378;-57
2022/08/20 09:58:45;;;;;;;37.93;34.13;;;21.70;1.00;;;;;;6280341;28;20229;-57
2022/08/20 10:01:48;;;;;;;38.00;34.20;;;21.90;1.00;;;;;;6287285;28;20310;-56
2022/08/20 10:04:51;;;;;;;35.37;31.67;;;22.00;1.00;;;;;;6288317;28;20316;-57
2022/08/20 10:07:54;;;;;;;33.53;30.33;;;22.10;1.00;;;;;;6282980;28;20280;-56
2022/08/20 10:10:57;;;;;;;34.47;31.00;;;22.10;1.00;;;;;;6285626;28;20643;-58
2022/08/20 10:14:11;;;;;;;30.10;27.10;;;22.10;1.00;;;;;;6287130;28;20236;-58
2022/08/20 10:17:14;;;;;;;29.90;27.20;;;22.20;1.00;;;;;;6280239;28;20236;-60
2022/08/20 10:20:17;;;;;;;28.50;25.83;;;22.40;1.00;;;;;;6287831;28;20323;-57
2022/08/20 10:23:20;;;;;;;28.77;25.80;;;22.50;1.00;;;;;;6281103;28;20332;-57
2022/08/20 10:26:23;;;;;;;30.03;27.23;;;22.50;1.00;;;;;;6286973;28;20695;-57
2022/08/20 10:29:29;;;;;;;29.53;26.57;;;22.60;1.00;;;;;;6283939;28;20294;-58
2022/08/20 10:32:33;;;;;;;29.43;26.47;;;22.50;1.00;;;;;;6287458;28;20289;-56
2022/08/20 10:35:37;;;;;;;25.13;22.73;;;22.50;1.00;;;;;;6286669;28;20233;-56
2022/08/20 10:38:40;;;;;;;25.60;23.17;;;22.70;1.00;;;;;;6280787;28;20333;-56
2022/08/20 10:41:44;;;;;;;23.77;21.53;;;22.80;1.00;;;;;;6286305;28;20383;-57
2022/08/20 10:44:48;;;;;;;24.43;21.60;;;22.90;1.00;;;;;;6251877;28;20373;-60
2022/08/20 10:47:51;;;;;;;21.53;19.63;;;23.00;1.00;;;;;;6281645;28;20737;-56
2022/08/20 10:50:55;;;;;;;21.93;19.93;;;23.10;1.00;;;;;;6286189;28;20264;-56
2022/08/20 10:53:58;;;;;;;22.40;20.23;;;23.20;1.00;;;;;;6282653;28;20314;-57
2022/08/20 10:57:01;;;;;;;19.37;17.67;;;23.20;1.00;;;;;;6285326;28;20540;-57
2022/08/20 11:00:09;;;;;;;18.53;16.90;;;23.30;1.00;;;;;;6285669;28;20643;-57
2022/08/20 11:03:12;;;;;;;19.07;17.63;;;23.40;1.00;;;;;;6273146;28;20613;-59
2022/08/20 11:06:25;;;;;;;20.97;19.17;;;23.40;1.00;;;;;;6286174;28;20245;-56
2022/08/20 11:09:34;;;;;;;20.03;18.07;;;23.50;1.00;;;;;;6285491;28;20329;-56
2022/08/20 11:12:37;;;;;;;17.13;15.83;;;23.50;1.00;;;;;;6278028;28;20310;-55
2022/08/20 11:15:43;;;;;;;19.77;17.83;;;23.60;1.00;;;;;;6285494;28;20363;-58
2022/08/20 11:18:47;;;;;;;21.20;19.27;;;23.50;1.00;;;;;;6283976;28;20234;-55
2022/08/20 11:21:49;;;;;;;16.97;15.43;;;23.50;1.00;;;;;;6284368;28;20363;-56
2022/08/20 11:24:53;;;;;;;16.57;15.20;;;23.60;1.00;;;;;;6285256;28;20233;-54
2022/08/20 11:27:57;;;;;;;15.50;14.03;;;23.50;1.00;;;;;;6282576;28;20233;-57
2022/08/20 11:31:01;;;;;;;15.30;14.03;;;23.50;1.00;;;;;;6284176;28;20248;-56
2022/08/20 11:34:05;;;;;;;16.87;15.43;;;23.40;1.00;;;;;;6274491;28;20524;-54
2022/08/20 11:37:17;;;;;;;13.33;12.23;;;23.40;1.00;;;;;;6284794;28;20260;-55
2022/08/20 11:40:21;;;;;;;14.90;13.70;;;23.50;1.00;;;;;;6280223;28;20249;-57
2022/08/20 11:43:24;;;;;;;12.60;11.43;;;23.60;1.00;;;;;;6284732;28;20739;-57
2022/08/20 11:46:28;;;;;;;12.70;11.70;;;23.50;1.00;;;;;;6285369;28;20760;-57
2022/08/20 11:49:31;;;;;;;10.93;10.10;;;23.40;1.00;;;;;;6279797;28;20320;-57
2022/08/20 11:52:34;;;;;;;10.40;9.40;;;23.30;1.00;;;;;;6286111;28;20486;-57
2022/08/20 11:55:37;;;;;;;10.40;9.70;;;23.20;1.00;;;;;;6285705;28;20948;-55
2022/08/20 11:58:40;;;;;;;10.93;10.03;;;23.10;1.00;;;;;;6284688;28;20726;-57
2022/08/20 12:01:45;;;;;;;9.97;9.27;;;23.20;1.00;;;;;;6285037;28;20233;-57
2022/08/20 12:05:05;;;;;;;10.00;9.27;;;23.20;1.00;;;;;;6284844;28;20234;-56
2022/08/20 12:08:08;;;;;;;12.17;11.13;;;23.20;1.00;;;;;;6282328;28;20310;-56
2022/08/20 12:11:11;;;;;;;9.73;9.17;;;23.20;1.00;;;;;;6276200;28;20909;-57
2022/08/20 12:14:14;;;;;;;12.43;11.43;;;23.20;1.00;;;;;;6283842;28;21144;-61
2022/08/20 12:17:22;;;;;;;11.57;10.77;;;23.20;1.00;;;;;;6280026;28;20391;-56
2022/08/20 12:20:25;;;;;;;13.40;12.13;;;23.30;1.00;;;;;;6256032;28;20241;-55
2022/08/20 12:23:28;;;;;;;10.90;10.10;;;23.30;1.00;;;;;;6282395;28;20237;-54
2022/08/20 12:26:31;;;;;;;12.37;11.40;;;23.30;1.00;;;;;;6280724;28;20759;-54
2022/08/20 12:29:35;;;;;;;11.20;10.40;;;23.30;1.00;;;;;;6283879;28;20844;-56
2022/08/20 12:32:43;;;;;;;10.40;9.80;;;23.20;1.00;;;;;;6280198;28;20535;-54
2022/08/20 12:35:47;;;;;;;11.00;10.10;;;23.30;1.00;;;;;;6276322;28;20489;-55
2022/08/20 12:38:56;;;;;;;10.83;9.93;;;23.20;1.00;;;;;;6282583;28;20237;-56
2022/08/20 12:42:01;;;;;;;9.70;8.97;;;23.20;1.00;;;;;;6278248;28;20359;-56
2022/08/20 12:45:06;;;;;;;11.27;10.37;;;23.20;1.00;;;;;;6280490;28;20245;-57
2022/08/20 12:48:12;;;;;;;9.67;8.87;;;23.30;1.00;;;;;;6283268;28;20229;-55
2022/08/20 12:51:15;;;;;;;9.60;9.10;;;23.30;1.00;;;;;;6283243;28;20341;-56
2022/08/20 12:54:18;;;;;;;9.50;8.80;;;23.30;1.00;;;;;;6278600;28;20340;-56
2022/08/20 12:57:27;;;;;;;9.03;8.47;;;23.30;1.00;;;;;;6283405;28;20488;-56
2022/08/20 13:00:32;;;;;;;8.67;8.17;;;23.30;1.00;;;;;;6282954;28;20233;-56
2022/08/20 13:03:36;;;;;;;9.50;8.80;;;23.10;1.00;;;;;;6280024;28;20240;-55
2022/08/20 13:06:47;;;;;;;8.63;8.13;;;23.20;1.00;;;;;;6281972;28;20278;-56
2022/08/20 13:09:50;;;;;;;7.73;7.33;;;23.00;1.00;;;;;;6282437;28;20389;-56
2022/08/20 13:12:53;;;;;;;9.93;9.33;;;22.90;1.00;;;;;;6279405;28;20309;-56
2022/08/20 13:15:56;;;;;;;8.87;8.27;;;22.80;1.00;;;;;;6281076;28;20697;-57
2022/08/20 13:19:01;;;;;;;8.00;7.50;;;22.80;1.00;;;;;;6271453;28;20261;-56
2022/08/20 13:22:04;;;;;;;9.03;8.43;;;22.80;1.00;;;;;;6283555;28;20237;-57
2022/08/20 13:25:10;;;;;;;10.07;9.40;;;22.80;1.00;;;;;;6282519;28;20322;-55
2022/08/20 13:28:13;;;;;;;11.17;10.07;;;22.70;1.00;;;;;;6280473;28;20705;-53
2022/08/20 13:31:16;;;;;;;11.30;10.30;;;22.70;1.00;;;;;;6282371;28;20805;-55
2022/08/20 13:34:28;;;;;;;11.33;10.53;;;22.50;1.00;;;;;;6277302;28;20601;-54
2022/08/20 13:37:31;;;;;;;9.97;9.37;;;22.40;1.00;;;;;;6281874;28;20681;-56
2022/08/20 13:40:34;;;;;;;12.23;11.07;;;22.40;1.00;;;;;;6273801;28;20454;-57
2022/08/20 13:43:37;;;;;;;12.87;11.57;;;22.30;1.00;;;;;;6282939;28;20725;-56
2022/08/20 13:46:40;;;;;;;12.47;11.37;;;22.10;1.00;;;;;;6283150;28;20244;-56
2022/08/20 13:49:45;;;;;;;13.07;11.97;;;22.00;1.00;;;;;;6281817;28;20685;-56
2022/08/20 13:52:48;;;;;;;12.60;11.63;;;22.00;1.00;;;;;;6280626;28;20244;-55
2022/08/20 13:55:51;;;;;;;13.70;12.57;;;21.90;1.00;;;;;;6282721;28;20328;-57
2022/08/20 13:58:54;;;;;;;14.57;13.40;;;21.90;1.00;;;;;;6282109;28;20374;-59
2022/08/20 14:01:57;;;;;;;13.67;12.63;;;21.80;1.00;;;;;;6281117;28;20343;-57
2022/08/20 14:05:01;;;;;;;13.73;12.73;;;21.70;1.00;;;;;;6279083;28;20233;-58
2022/08/20 14:08:07;;;;;;;14.27;13.20;;;21.70;1.00;;;;;;6277881;28;20320;-56
2022/08/20 14:11:10;;;;;;;15.90;13.00;;;21.70;1.00;;;;;;6283100;28;20367;-57
2022/08/20 14:14:27;;;;;;;14.50;13.43;;;21.70;1.00;;;;;;6282210;28;20229;-57
2022/08/20 14:17:39;;;;;;;14.77;13.37;;;21.70;1.00;;;;;;6280088;28;20261;-53
2022/08/20 14:20:51;;;;;;;16.10;14.73;;;21.70;1.00;;;;;;6278985;28;20387;-54
2022/08/20 14:23:54;;;;;;;14.03;12.93;;;21.70;1.00;;;;;;6279808;28;20615;-55
2022/08/20 14:26:57;;;;;;;15.90;14.53;;;21.70;1.00;;;;;;6276813;28;20246;-54
2022/08/20 14:30:00;;;;;;;12.77;11.73;;;21.60;1.00;;;;;;6273705;28;20248;-52
2022/08/20 14:33:12;;;;;;;15.30;14.07;;;21.70;1.00;;;;;;6283158;28;20283;-54
2022/08/20 14:36:17;;;;;;;12.70;11.67;;;21.70;1.00;;;;;;6282303;28;20626;-52
2022/08/20 14:39:20;;;;;;;14.00;12.80;;;21.70;1.00;;;;;;6280241;28;20388;-54
2022/08/20 14:42:25;;;;;;;16.30;14.93;;;21.80;1.00;;;;;;6284528;28;20595;-53
2022/08/20 14:45:28;;;;;;;14.93;13.60;;;21.80;1.00;;;;;;6285757;28;20234;-53
2022/08/20 14:48:31;;;;;;;14.07;12.80;;;21.80;1.00;;;;;;6286291;28;20320;-54
2022/08/20 14:51:36;;;;;;;14.33;13.23;;;21.90;1.00;;;;;;6285929;28;20672;-55
2022/08/20 14:54:40;;;;;;;14.83;13.70;;;21.90;1.00;;;;;;6286375;28;20308;-55
2022/08/20 14:57:44;;;;;;;16.10;14.53;;;22.00;1.00;;;;;;6287323;28;20229;-56
2022/08/20 15:00:47;;;;;;;13.77;12.77;;;21.90;1.00;;;;;;6281287;28;20318;-55
2022/08/20 15:03:50;;;;;;;14.70;13.50;;;21.90;1.00;;;;;;6284562;28;20244;-56
2022/08/20 15:06:56;;;;;;;16.47;14.83;;;21.80;1.00;;;;;;6285845;28;20249;-55
2022/08/20 15:10:10;;;;;;;17.17;15.37;;;21.80;1.00;;;;;;6276993;28;20237;-56
2022/08/20 15:13:12;;;;;;;16.33;15.00;;;21.70;1.00;;;;;;6286733;28;20229;-56
2022/08/20 15:16:15;;;;;;;17.20;15.70;;;21.70;1.00;;;;;;6285934;28;20313;-56
2022/08/20 15:19:18;;;;;;;16.07;14.77;;;21.70;1.00;;;;;;6284231;28;20424;-55
2022/08/20 15:22:24;;;;;;;16.50;15.10;;;21.70;1.00;;;;;;6285867;28;20811;-57
2022/08/20 15:25:31;;;;;;;16.93;15.43;;;21.60;1.00;;;;;;6285689;28;20697;-55
2022/08/20 15:28:39;;;;;;;14.73;13.63;;;21.60;1.00;;;;;;6278767;28;20233;-56
2022/08/20 15:31:42;;;;;;;16.77;15.43;;;21.60;1.00;;;;;;6285352;28;20698;-57
2022/08/20 15:34:49;;;;;;;17.00;15.47;;;21.60;1.00;;;;;;6284451;28;20225;-55
2022/08/20 15:37:56;;;;;;;14.90;13.80;;;21.50;1.00;;;;;;6285453;28;20260;-56
2022/08/20 15:41:00;;;;;;;16.50;15.17;;;21.50;1.00;;;;;;6284508;28;20287;-57
2022/08/20 15:44:03;;;;;;;17.30;15.70;;;21.50;1.00;;;;;;6285436;28;20239;-57
2022/08/20 15:47:22;;;;;;;16.07;14.50;;;21.50;1.00;;;;;;6284364;28;20288;-57
2022/08/20 15:50:51;;;;;;;16.80;15.30;;;21.50;1.00;;;;;;6281348;28;20238;-57
2022/08/20 15:53:59;;;;;;;17.97;16.23;;;21.40;1.00;;;;;;6283511;28;20229;-57
2022/08/20 15:57:07;;;;;;;17.87;16.17;;;21.40;1.00;;;;;;6277093;28;20386;-56
2022/08/20 16:00:18;;;;;;;16.60;15.10;;;21.50;1.00;;;;;;6276459;28;20323;-58
2022/08/20 16:03:50;;;;;;;15.40;14.10;;;21.50;1.00;;;;;;6280205;28;20238;-57